sensor_id;sensor_type;location;lat;lon;timestamp;temperature;humidity
40676;DHT22;26359;48.750;9.314;2022-10-16T00:00:16;15.90;99.90
40676;DHT22;26359;48.750;9.314;2022-10-16T00:02:41;15.90;99.90
40676;DHT22;26359;48.750;9.314;2022-10-16T00:05:07;15.90;99.90
40676;DHT22;26359;48.750;9.314;2022-10-16T00:07:32;15.90;99.90
40676;DHT22;26359;48.750;9.314;2022-10-16T00:09:58;15.70;99.90
40676;DHT22;26359;48.750;9.314;2022-10-16T00:12:23;15.70;99.90
40676;DHT22;26359;48.750;9.314;2022-10-16T00:14:49;15.80;99.90
40676;DHT22;26359;48.750;9.314;2022-10-16T00:17:14;15.80;99.90
40676;DHT22;26359;48.750;9.314;2022-10-16T00:19:40;15.80;99.90
40676;DHT22;26359;48.750;9.314;2022-10-16T00:22:05;15.70;99.90
40676;DHT22;26359;48.750;9.314;2022-10-16T00:24:31;15.70;99.90
40676;DHT22;26359;48.750;9.314;2022-10-16T00:26:56;15.70;99.90
40676;DHT22;26359;48.750;9.314;2022-10-16T00:29:22;15.70;99.90
40676;DHT22;26359;48.750;9.314;2022-10-16T00:31:47;15.70;99.90
40676;DHT22;26359;48.750;9.314;2022-10-16T00:34:13;15.70;99.90
40676;DHT22;26359;48.750;9.314;2022-10-16T00:36:38;15.60;99.90
40676;DHT22;26359;48.750;9.314;2022-10-16T00:39:04;15.60;99.90
40676;DHT22;26359;48.750;9.314;2022-10-16T00:41:30;15.60;99.90
40676;DHT22;26359;48.750;9.314;2022-10-16T00:44:01;15.60;99.90
40676;DHT22;26359;48.750;9.314;2022-10-16T00:46:40;15.50;99.90
40676;DHT22;26359;48.750;9.314;2022-10-16T00:49:08;15.50;99.90
40676;DHT22;26359;48.750;9.314;2022-10-16T00:51:46;15.50;99.90
40676;DHT22;26359;48.750;9.314;2022-10-16T00:54:19;15.50;99.90
40676;DHT22;26359;48.750;9.314;2022-10-16T00:56:46;15.40;99.90
40676;DHT22;26359;48.750;9.314;2022-10-16T00:59:25;15.40;99.90
40676;DHT22;26359;48.750;9.314;2022-10-16T01:01:52;15.40;99.90
40676;DHT22;26359;48.750;9.314;2022-10-16T01:04:18;15.40;99.90
40676;DHT22;26359;48.750;9.314;2022-10-16T01:12:51;15.40;99.90
40676;DHT22;26359;48.750;9.314;2022-10-16T01:15:29;15.30;99.90
40676;DHT22;26359;48.750;9.314;2022-10-16T01:18:16;15.30;99.90
40676;DHT22;26359;48.750;9.314;2022-10-16T01:21:04;15.20;99.90
40676;DHT22;26359;48.750;9.314;2022-10-16T01:28:46;15.20;99.90
40676;DHT22;26359;48.750;9.314;2022-10-16T01:31:18;15.20;99.90
40676;DHT22;26359;48.750;9.314;2022-10-16T01:33:47;15.20;99.90
40676;DHT22;26359;48.750;9.314;2022-10-16T01:36:25;15.30;99.90
40676;DHT22;26359;48.750;9.314;2022-10-16T01:38:54;15.20;99.90
40676;DHT22;26359;48.750;9.314;2022-10-16T01:41:26;15.20;99.90
40676;DHT22;26359;48.750;9.314;2022-10-16T01:44:06;15.20;99.90
40676;DHT22;26359;48.750;9.314;2022-10-16T01:46:35;15.20;99.90
40676;DHT22;26359;48.750;9.314;2022-10-16T01:49:02;15.20;99.90
40676;DHT22;26359;48.750;9.314;2022-10-16T01:51:29;15.20;99.90
40676;DHT22;26359;48.750;9.314;2022-10-16T01:53:57;15.10;99.90
40676;DHT22;26359;48.750;9.314;2022-10-16T01:56:25;15.10;99.90
40676;DHT22;26359;48.750;9.314;2022-10-16T01:58:58;15.10;99.90
40676;DHT22;26359;48.750;9.314;2022-10-16T02:01:26;15.10;99.90
40676;DHT22;26359;48.750;9.314;2022-10-16T02:03:56;15.10;99.90
40676;DHT22;26359;48.750;9.314;2022-10-16T02:06:23;15.10;99.90
40676;DHT22;26359;48.750;9.314;2022-10-16T02:08:49;15.10;99.90
40676;DHT22;26359;48.750;9.314;2022-10-16T02:11:14;15.10;99.90
40676;DHT22;26359;48.750;9.314;2022-10-16T02:13:50;15.20;99.90
40676;DHT22;26359;48.750;9.314;2022-10-16T02:16:16;15.20;99.90
40676;DHT22;26359;48.750;9.314;2022-10-16T02:18:43;15.20;99.90
40676;DHT22;26359;48.750;9.314;2022-10-16T02:21:27;15.20;99.90
40676;DHT22;26359;48.750;9.314;2022-10-16T02:23:59;15.10;99.90
40676;DHT22;26359;48.750;9.314;2022-10-16T02:29:03;15.10;99.90
40676;DHT22;26359;48.750;9.314;2022-10-16T02:31:32;15.10;99.90
40676;DHT22;26359;48.750;9.314;2022-10-16T02:34:02;15.10;99.90
40676;DHT22;26359;48.750;9.314;2022-10-16T02:36:31;15.10;99.90
40676;DHT22;26359;48.750;9.314;2022-10-16T02:38:58;15.10;99.90
40676;DHT22;26359;48.750;9.314;2022-10-16T02:41:26;15.10;99.90
40676;DHT22;26359;48.750;9.314;2022-10-16T02:43:51;15.10;99.90
40676;DHT22;26359;48.750;9.314;2022-10-16T02:46:17;15.10;99.90
40676;DHT22;26359;48.750;9.314;2022-10-16T02:48:43;15.10;99.90
40676;DHT22;26359;48.750;9.314;2022-10-16T02:51:09;15.10;99.90
40676;DHT22;26359;48.750;9.314;2022-10-16T02:53:34;15.10;99.90
40676;DHT22;26359;48.750;9.314;2022-10-16T02:56:00;15.10;99.90
40676;DHT22;26359;48.750;9.314;2022-10-16T02:58:25;15.10;99.90
40676;DHT22;26359;48.750;9.314;2022-10-16T03:00:51;15.10;99.90
40676;DHT22;26359;48.750;9.314;2022-10-16T03:03:16;15.00;99.90
40676;DHT22;26359;48.750;9.314;2022-10-16T03:05:43;15.00;99.90
40676;DHT22;26359;48.750;9.314;2022-10-16T03:08:11;15.00;99.90
40676;DHT22;26359;48.750;9.314;2022-10-16T03:10:37;14.90;99.90
40676;DHT22;26359;48.750;9.314;2022-10-16T03:13:03;14.90;99.90
40676;DHT22;26359;48.750;9.314;2022-10-16T03:15:28;14.90;99.90
40676;DHT22;26359;48.750;9.314;2022-10-16T03:17:54;14.90;99.90
40676;DHT22;26359;48.750;9.314;2022-10-16T03:20:20;14.90;99.90
40676;DHT22;26359;48.750;9.314;2022-10-16T03:22:46;15.00;99.90
40676;DHT22;26359;48.750;9.314;2022-10-16T03:25:11;14.90;99.90
40676;DHT22;26359;48.750;9.314;2022-10-16T03:27:37;15.00;99.90
40676;DHT22;26359;48.750;9.314;2022-10-16T03:30:02;14.90;99.90
40676;DHT22;26359;48.750;9.314;2022-10-16T03:32:28;14.90;99.90
40676;DHT22;26359;48.750;9.314;2022-10-16T03:34:54;14.90;99.90
40676;DHT22;26359;48.750;9.314;2022-10-16T03:37:21;14.90;99.90
40676;DHT22;26359;48.750;9.314;2022-10-16T03:39:47;14.90;99.90
40676;DHT22;26359;48.750;9.314;2022-10-16T03:42:12;14.90;99.90
40676;DHT22;26359;48.750;9.314;2022-10-16T03:44:38;14.90;99.90
40676;DHT22;26359;48.750;9.314;2022-10-16T03:47:03;14.90;99.90
40676;DHT22;26359;48.750;9.314;2022-10-16T03:49:29;14.90;99.90
40676;DHT22;26359;48.750;9.314;2022-10-16T03:51:55;14.90;99.90
40676;DHT22;26359;48.750;9.314;2022-10-16T03:54:20;14.90;99.90
40676;DHT22;26359;48.750;9.314;2022-10-16T03:56:47;14.80;99.90
40676;DHT22;26359;48.750;9.314;2022-10-16T03:59:13;14.90;99.90
40676;DHT22;26359;48.750;9.314;2022-10-16T04:01:38;14.80;99.90
40676;DHT22;26359;48.750;9.314;2022-10-16T04:04:04;14.80;99.90
40676;DHT22;26359;48.750;9.314;2022-10-16T04:06:29;14.80;99.90
40676;DHT22;26359;48.750;9.314;2022-10-16T04:08:55;14.80;99.90
40676;DHT22;26359;48.750;9.314;2022-10-16T04:11:21;14.80;99.90
40676;DHT22;26359;48.750;9.314;2022-10-16T04:13:47;14.80;99.90
40676;DHT22;26359;48.750;9.314;2022-10-16T04:16:12;14.80;99.90
40676;DHT22;26359;48.750;9.314;2022-10-16T04:18:38;14.80;99.90
40676;DHT22;26359;48.750;9.314;2022-10-16T04:21:05;14.70;99.90
40676;DHT22;26359;48.750;9.314;2022-10-16T04:23:31;14.80;99.90
40676;DHT22;26359;48.750;9.314;2022-10-16T04:25:57;14.70;99.90
40676;DHT22;26359;48.750;9.314;2022-10-16T04:28:23;14.80;99.90
40676;DHT22;26359;48.750;9.314;2022-10-16T04:30:48;14.80;99.90
40676;DHT22;26359;48.750;9.314;2022-10-16T04:33:14;14.70;99.90
40676;DHT22;26359;48.750;9.314;2022-10-16T04:35:39;14.80;99.90
40676;DHT22;26359;48.750;9.314;2022-10-16T04:38:05;14.70;99.90
40676;DHT22;26359;48.750;9.314;2022-10-16T04:40:30;14.70;99.90
40676;DHT22;26359;48.750;9.314;2022-10-16T04:43:02;14.70;99.90
40676;DHT22;26359;48.750;9.314;2022-10-16T04:45:27;14.70;99.90
40676;DHT22;26359;48.750;9.314;2022-10-16T04:47:57;14.70;99.90
40676;DHT22;26359;48.750;9.314;2022-10-16T04:50:22;14.80;99.90
40676;DHT22;26359;48.750;9.314;2022-10-16T04:52:48;14.80;99.90
40676;DHT22;26359;48.750;9.314;2022-10-16T04:55:13;14.80;99.90
40676;DHT22;26359;48.750;9.314;2022-10-16T04:57:39;14.80;99.90
40676;DHT22;26359;48.750;9.314;2022-10-16T05:00:05;14.80;99.90
40676;DHT22;26359;48.750;9.314;2022-10-16T05:02:31;14.80;99.90
40676;DHT22;26359;48.750;9.314;2022-10-16T05:04:57;14.80;99.90
40676;DHT22;26359;48.750;9.314;2022-10-16T05:07:22;14.80;99.90
40676;DHT22;26359;48.750;9.314;2022-10-16T05:09:48;14.80;99.90
40676;DHT22;26359;48.750;9.314;2022-10-16T05:12:13;14.70;99.90
40676;DHT22;26359;48.750;9.314;2022-10-16T05:14:39;14.80;99.90
40676;DHT22;26359;48.750;9.314;2022-10-16T05:17:05;14.80;99.90
40676;DHT22;26359;48.750;9.314;2022-10-16T05:19:30;14.80;99.90
40676;DHT22;26359;48.750;9.314;2022-10-16T05:21:56;14.80;99.90
40676;DHT22;26359;48.750;9.314;2022-10-16T05:24:21;14.80;99.90
40676;DHT22;26359;48.750;9.314;2022-10-16T05:26:47;14.80;99.90
40676;DHT22;26359;48.750;9.314;2022-10-16T05:29:12;14.80;99.90
40676;DHT22;26359;48.750;9.314;2022-10-16T05:31:38;14.90;99.90
40676;DHT22;26359;48.750;9.314;2022-10-16T05:34:03;14.80;99.90
40676;DHT22;26359;48.750;9.314;2022-10-16T05:36:29;14.80;99.90
40676;DHT22;26359;48.750;9.314;2022-10-16T05:38:55;14.80;99.90
40676;DHT22;26359;48.750;9.314;2022-10-16T05:41:20;14.80;99.90
40676;DHT22;26359;48.750;9.314;2022-10-16T05:43:50;14.80;99.90
40676;DHT22;26359;48.750;9.314;2022-10-16T05:46:16;14.80;99.90
40676;DHT22;26359;48.750;9.314;2022-10-16T05:48:41;14.80;99.90
40676;DHT22;26359;48.750;9.314;2022-10-16T05:51:10;14.80;99.90
40676;DHT22;26359;48.750;9.314;2022-10-16T05:53:37;14.70;99.90
40676;DHT22;26359;48.750;9.314;2022-10-16T05:56:04;14.70;99.90
40676;DHT22;26359;48.750;9.314;2022-10-16T05:58:33;14.80;99.90
40676;DHT22;26359;48.750;9.314;2022-10-16T06:01:19;14.70;99.90
40676;DHT22;26359;48.750;9.314;2022-10-16T06:03:46;14.70;99.90
40676;DHT22;26359;48.750;9.314;2022-10-16T06:06:17;14.80;99.90
40676;DHT22;26359;48.750;9.314;2022-10-16T06:08:45;14.80;99.90
40676;DHT22;26359;48.750;9.314;2022-10-16T06:11:16;14.70;99.90
40676;DHT22;26359;48.750;9.314;2022-10-16T06:13:42;14.80;99.90
40676;DHT22;26359;48.750;9.314;2022-10-16T06:16:10;14.80;99.90
40676;DHT22;26359;48.750;9.314;2022-10-16T06:18:35;14.70;99.90
40676;DHT22;26359;48.750;9.314;2022-10-16T06:21:07;14.70;99.90
40676;DHT22;26359;48.750;9.314;2022-10-16T06:23:33;14.70;99.90
40676;DHT22;26359;48.750;9.314;2022-10-16T06:28:31;14.70;99.90
40676;DHT22;26359;48.750;9.314;2022-10-16T06:31:00;14.80;99.90
40676;DHT22;26359;48.750;9.314;2022-10-16T06:33:26;14.80;99.90
40676;DHT22;26359;48.750;9.314;2022-10-16T06:35:52;14.80;99.90
40676;DHT22;26359;48.750;9.314;2022-10-16T06:38:17;14.80;99.90
40676;DHT22;26359;48.750;9.314;2022-10-16T06:40:43;14.80;99.90
40676;DHT22;26359;48.750;9.314;2022-10-16T06:43:09;14.90;99.90
40676;DHT22;26359;48.750;9.314;2022-10-16T06:45:34;14.90;99.90
40676;DHT22;26359;48.750;9.314;2022-10-16T06:48:00;14.90;99.90
40676;DHT22;26359;48.750;9.314;2022-10-16T06:50:25;15.00;99.90
40676;DHT22;26359;48.750;9.314;2022-10-16T06:52:51;15.00;99.90
40676;DHT22;26359;48.750;9.314;2022-10-16T06:55:16;15.00;99.90
40676;DHT22;26359;48.750;9.314;2022-10-16T06:57:43;15.00;99.90
40676;DHT22;26359;48.750;9.314;2022-10-16T07:00:09;15.00;99.90
40676;DHT22;26359;48.750;9.314;2022-10-16T07:02:34;15.00;99.90
40676;DHT22;26359;48.750;9.314;2022-10-16T07:05:00;15.00;99.90
40676;DHT22;26359;48.750;9.314;2022-10-16T07:07:25;15.00;99.90
40676;DHT22;26359;48.750;9.314;2022-10-16T07:09:52;15.10;99.90
40676;DHT22;26359;48.750;9.314;2022-10-16T07:12:17;15.10;99.90
40676;DHT22;26359;48.750;9.314;2022-10-16T07:14:43;15.10;99.90
40676;DHT22;26359;48.750;9.314;2022-10-16T07:17:08;15.10;99.90
40676;DHT22;26359;48.750;9.314;2022-10-16T07:19:34;15.10;99.90
40676;DHT22;26359;48.750;9.314;2022-10-16T07:22:00;15.10;99.90
40676;DHT22;26359;48.750;9.314;2022-10-16T07:24:26;15.10;99.90
40676;DHT22;26359;48.750;9.314;2022-10-16T07:26:51;15.20;99.90
40676;DHT22;26359;48.750;9.314;2022-10-16T07:29:21;15.20;99.90
40676;DHT22;26359;48.750;9.314;2022-10-16T07:31:47;15.20;99.90
40676;DHT22;26359;48.750;9.314;2022-10-16T07:34:15;15.20;99.90
40676;DHT22;26359;48.750;9.314;2022-10-16T07:36:41;15.20;99.90
40676;DHT22;26359;48.750;9.314;2022-10-16T07:39:07;15.20;99.90
40676;DHT22;26359;48.750;9.314;2022-10-16T07:41:33;15.20;99.90
40676;DHT22;26359;48.750;9.314;2022-10-16T07:44:02;15.20;99.90
40676;DHT22;26359;48.750;9.314;2022-10-16T07:46:28;15.30;99.90
40676;DHT22;26359;48.750;9.314;2022-10-16T07:48:54;15.30;99.90
40676;DHT22;26359;48.750;9.314;2022-10-16T07:51:21;15.30;99.90
40676;DHT22;26359;48.750;9.314;2022-10-16T07:53:47;15.40;99.90
40676;DHT22;26359;48.750;9.314;2022-10-16T07:56:14;15.40;99.90
40676;DHT22;26359;48.750;9.314;2022-10-16T07:58:40;15.50;99.90
40676;DHT22;26359;48.750;9.314;2022-10-16T08:01:08;15.50;99.90
40676;DHT22;26359;48.750;9.314;2022-10-16T08:03:34;15.50;99.90
40676;DHT22;26359;48.750;9.314;2022-10-16T08:06:00;15.60;99.90
40676;DHT22;26359;48.750;9.314;2022-10-16T08:08:26;15.60;99.90
40676;DHT22;26359;48.750;9.314;2022-10-16T08:10:52;15.60;99.90
40676;DHT22;26359;48.750;9.314;2022-10-16T08:13:18;15.60;99.90
40676;DHT22;26359;48.750;9.314;2022-10-16T08:15:44;15.70;99.90
40676;DHT22;26359;48.750;9.314;2022-10-16T08:18:12;15.70;99.90
40676;DHT22;26359;48.750;9.314;2022-10-16T08:20:38;15.70;99.90
40676;DHT22;26359;48.750;9.314;2022-10-16T08:23:04;15.70;99.90
40676;DHT22;26359;48.750;9.314;2022-10-16T08:25:30;15.80;99.90
40676;DHT22;26359;48.750;9.314;2022-10-16T08:27:55;15.90;99.90
40676;DHT22;26359;48.750;9.314;2022-10-16T08:30:22;15.80;99.90
40676;DHT22;26359;48.750;9.314;2022-10-16T08:32:48;15.90;99.90
40676;DHT22;26359;48.750;9.314;2022-10-16T08:35:14;16.00;99.90
40676;DHT22;26359;48.750;9.314;2022-10-16T08:37:40;16.00;99.90
40676;DHT22;26359;48.750;9.314;2022-10-16T08:40:13;16.20;99.90
40676;DHT22;26359;48.750;9.314;2022-10-16T08:48:33;16.60;99.90
40676;DHT22;26359;48.750;9.314;2022-10-16T08:51:02;16.70;99.90
40676;DHT22;26359;48.750;9.314;2022-10-16T08:53:38;16.80;99.90
40676;DHT22;26359;48.750;9.314;2022-10-16T08:56:06;16.80;99.90
40676;DHT22;26359;48.750;9.314;2022-10-16T08:58:31;16.80;99.90
40676;DHT22;26359;48.750;9.314;2022-10-16T09:01:00;16.90;99.90
40676;DHT22;26359;48.750;9.314;2022-10-16T09:06:46;16.90;99.90
40676;DHT22;26359;48.750;9.314;2022-10-16T09:12:19;16.90;99.90
40676;DHT22;26359;48.750;9.314;2022-10-16T09:21:39;17.10;99.90
40676;DHT22;26359;48.750;9.314;2022-10-16T09:23:45;17.20;99.90
40676;DHT22;26359;48.750;9.314;2022-10-16T09:26:13;17.30;99.90
40676;DHT22;26359;48.750;9.314;2022-10-16T09:28:39;17.40;99.90
40676;DHT22;26359;48.750;9.314;2022-10-16T09:31:04;17.50;99.90
40676;DHT22;26359;48.750;9.314;2022-10-16T09:33:34;17.60;99.90
40676;DHT22;26359;48.750;9.314;2022-10-16T09:36:03;17.80;99.90
40676;DHT22;26359;48.750;9.314;2022-10-16T09:38:32;18.00;99.90
40676;DHT22;26359;48.750;9.314;2022-10-16T09:40:59;18.00;99.90
40676;DHT22;26359;48.750;9.314;2022-10-16T09:46:30;18.30;99.90
40676;DHT22;26359;48.750;9.314;2022-10-16T09:48:59;18.80;99.90
40676;DHT22;26359;48.750;9.314;2022-10-16T09:51:36;19.40;99.90
40676;DHT22;26359;48.750;9.314;2022-10-16T09:54:19;19.90;99.90
40676;DHT22;26359;48.750;9.314;2022-10-16T09:56:45;20.10;99.90
40676;DHT22;26359;48.750;9.314;2022-10-16T09:59:23;20.30;99.90
40676;DHT22;26359;48.750;9.314;2022-10-16T10:01:53;20.20;99.90
40676;DHT22;26359;48.750;9.314;2022-10-16T10:04:22;20.30;99.90
40676;DHT22;26359;48.750;9.314;2022-10-16T10:06:50;20.70;99.90
40676;DHT22;26359;48.750;9.314;2022-10-16T10:12:03;21.30;99.90
40676;DHT22;26359;48.750;9.314;2022-10-16T10:25:23;22.80;99.90
40676;DHT22;26359;48.750;9.314;2022-10-16T10:36:40;22.20;99.90
40676;DHT22;26359;48.750;9.314;2022-10-16T10:39:21;22.20;99.90
40676;DHT22;26359;48.750;9.314;2022-10-16T10:44:43;22.10;99.90
40676;DHT22;26359;48.750;9.314;2022-10-16T11:04:19;23.30;99.90
40676;DHT22;26359;48.750;9.314;2022-10-16T11:06:43;23.80;99.90
40676;DHT22;26359;48.750;9.314;2022-10-16T11:11:45;24.70;99.90
40676;DHT22;26359;48.750;9.314;2022-10-16T11:14:21;24.90;99.90
40676;DHT22;26359;48.750;9.314;2022-10-16T11:17:01;25.10;99.90
40676;DHT22;26359;48.750;9.314;2022-10-16T11:19:44;25.00;99.90
40676;DHT22;26359;48.750;9.314;2022-10-16T11:22:25;25.30;99.90
40676;DHT22;26359;48.750;9.314;2022-10-16T11:30:26;25.60;99.90
40676;DHT22;26359;48.750;9.314;2022-10-16T11:35:52;25.60;99.90
40676;DHT22;26359;48.750;9.314;2022-10-16T11:38:33;25.60;99.90
40676;DHT22;26359;48.750;9.314;2022-10-16T11:41:32;25.70;99.90
40676;DHT22;26359;48.750;9.314;2022-10-16T11:49:32;25.80;99.90
40676;DHT22;26359;48.750;9.314;2022-10-16T11:52:20;26.10;99.90
40676;DHT22;26359;48.750;9.314;2022-10-16T11:55:12;26.20;99.90
40676;DHT22;26359;48.750;9.314;2022-10-16T11:57:49;26.00;99.90
40676;DHT22;26359;48.750;9.314;2022-10-16T12:00:24;26.10;99.90
40676;DHT22;26359;48.750;9.314;2022-10-16T12:08:05;26.00;99.90
40676;DHT22;26359;48.750;9.314;2022-10-16T12:10:31;26.00;99.90
40676;DHT22;26359;48.750;9.314;2022-10-16T12:13:02;26.00;99.90
40676;DHT22;26359;48.750;9.314;2022-10-16T12:15:31;26.20;99.90
40676;DHT22;26359;48.750;9.314;2022-10-16T12:17:57;26.50;99.90
40676;DHT22;26359;48.750;9.314;2022-10-16T12:20:31;26.70;99.90
40676;DHT22;26359;48.750;9.314;2022-10-16T12:23:00;26.20;99.90
40676;DHT22;26359;48.750;9.314;2022-10-16T12:25:34;25.90;99.90
40676;DHT22;26359;48.750;9.314;2022-10-16T12:28:17;26.10;99.90
40676;DHT22;26359;48.750;9.314;2022-10-16T12:31:06;26.40;99.90
40676;DHT22;26359;48.750;9.314;2022-10-16T12:33:34;26.60;99.90
40676;DHT22;26359;48.750;9.314;2022-10-16T12:36:05;26.90;99.90
40676;DHT22;26359;48.750;9.314;2022-10-16T12:38:46;26.80;99.90
40676;DHT22;26359;48.750;9.314;2022-10-16T12:41:11;26.60;99.90
40676;DHT22;26359;48.750;9.314;2022-10-16T12:43:46;26.50;99.90
40676;DHT22;26359;48.750;9.314;2022-10-16T12:48:42;26.10;99.90
40676;DHT22;26359;48.750;9.314;2022-10-16T12:51:25;25.90;99.90
40676;DHT22;26359;48.750;9.314;2022-10-16T12:54:22;25.80;99.90
40676;DHT22;26359;48.750;9.314;2022-10-16T12:57:23;25.80;99.90
40676;DHT22;26359;48.750;9.314;2022-10-16T13:06:01;25.10;99.90
40676;DHT22;26359;48.750;9.314;2022-10-16T13:08:50;24.80;99.90
40676;DHT22;26359;48.750;9.314;2022-10-16T13:23:29;24.20;99.90
40676;DHT22;26359;48.750;9.314;2022-10-16T13:28:36;24.20;99.90
40676;DHT22;26359;48.750;9.314;2022-10-16T13:31:03;24.20;99.90
40676;DHT22;26359;48.750;9.314;2022-10-16T13:33:37;24.10;99.90
40676;DHT22;26359;48.750;9.314;2022-10-16T13:36:05;24.20;99.90
40676;DHT22;26359;48.750;9.314;2022-10-16T13:38:36;24.10;99.90
40676;DHT22;26359;48.750;9.314;2022-10-16T13:41:02;24.10;99.90
40676;DHT22;26359;48.750;9.314;2022-10-16T13:43:35;24.10;99.90
40676;DHT22;26359;48.750;9.314;2022-10-16T13:46:07;24.10;99.90
40676;DHT22;26359;48.750;9.314;2022-10-16T13:48:36;24.10;99.90
40676;DHT22;26359;48.750;9.314;2022-10-16T13:51:18;24.10;99.90
40676;DHT22;26359;48.750;9.314;2022-10-16T13:53:44;24.10;99.90
40676;DHT22;26359;48.750;9.314;2022-10-16T13:56:16;24.00;99.90
40676;DHT22;26359;48.750;9.314;2022-10-16T13:58:42;23.90;99.90
40676;DHT22;26359;48.750;9.314;2022-10-16T14:01:20;23.80;99.90
40676;DHT22;26359;48.750;9.314;2022-10-16T14:03:49;23.80;99.90
40676;DHT22;26359;48.750;9.314;2022-10-16T14:06:18;23.70;99.90
40676;DHT22;26359;48.750;9.314;2022-10-16T14:08:57;23.60;99.90
40676;DHT22;26359;48.750;9.314;2022-10-16T14:11:24;23.60;99.90
40676;DHT22;26359;48.750;9.314;2022-10-16T14:13:51;23.60;99.90
40676;DHT22;26359;48.750;9.314;2022-10-16T14:16:20;23.50;99.90
40676;DHT22;26359;48.750;9.314;2022-10-16T14:18:50;23.40;99.90
40676;DHT22;26359;48.750;9.314;2022-10-16T14:21:16;23.40;99.90
40676;DHT22;26359;48.750;9.314;2022-10-16T14:23:43;23.30;99.90
40676;DHT22;26359;48.750;9.314;2022-10-16T14:28:38;23.20;99.90
40676;DHT22;26359;48.750;9.314;2022-10-16T14:31:30;23.20;99.90
40676;DHT22;26359;48.750;9.314;2022-10-16T14:33:57;23.20;99.90
40676;DHT22;26359;48.750;9.314;2022-10-16T14:36:24;23.10;99.90
40676;DHT22;26359;48.750;9.314;2022-10-16T14:39:03;23.10;99.90
40676;DHT22;26359;48.750;9.314;2022-10-16T14:41:31;23.10;99.90
40676;DHT22;26359;48.750;9.314;2022-10-16T14:44:02;23.00;99.90
40676;DHT22;26359;48.750;9.314;2022-10-16T14:46:35;23.00;99.90
40676;DHT22;26359;48.750;9.314;2022-10-16T14:49:13;22.90;99.90
40676;DHT22;26359;48.750;9.314;2022-10-16T14:51:42;22.90;99.90
40676;DHT22;26359;48.750;9.314;2022-10-16T14:54:10;22.90;99.90
40676;DHT22;26359;48.750;9.314;2022-10-16T14:56:48;22.80;99.90
40676;DHT22;26359;48.750;9.314;2022-10-16T14:59:27;22.90;99.90
40676;DHT22;26359;48.750;9.314;2022-10-16T15:01:53;22.80;99.90
40676;DHT22;26359;48.750;9.314;2022-10-16T15:04:19;22.80;99.90
40676;DHT22;26359;48.750;9.314;2022-10-16T15:06:45;22.80;99.90
40676;DHT22;26359;48.750;9.314;2022-10-16T15:09:11;22.80;99.90
40676;DHT22;26359;48.750;9.314;2022-10-16T15:11:37;22.80;99.90
40676;DHT22;26359;48.750;9.314;2022-10-16T15:14:03;22.80;99.90
40676;DHT22;26359;48.750;9.314;2022-10-16T15:16:29;22.70;99.90
40676;DHT22;26359;48.750;9.314;2022-10-16T15:18:54;22.70;99.90
40676;DHT22;26359;48.750;9.314;2022-10-16T15:21:27;22.60;99.90
40676;DHT22;26359;48.750;9.314;2022-10-16T15:23:53;22.60;99.90
40676;DHT22;26359;48.750;9.314;2022-10-16T15:26:19;22.50;99.90
40676;DHT22;26359;48.750;9.314;2022-10-16T15:28:44;22.50;99.90
40676;DHT22;26359;48.750;9.314;2022-10-16T15:31:10;22.40;99.90
40676;DHT22;26359;48.750;9.314;2022-10-16T15:33:36;22.40;99.90
40676;DHT22;26359;48.750;9.314;2022-10-16T15:36:02;22.40;99.90
40676;DHT22;26359;48.750;9.314;2022-10-16T15:38:28;22.30;99.90
40676;DHT22;26359;48.750;9.314;2022-10-16T15:40:54;22.30;99.90
40676;DHT22;26359;48.750;9.314;2022-10-16T15:43:20;22.20;99.90
40676;DHT22;26359;48.750;9.314;2022-10-16T15:46:04;22.20;99.90
40676;DHT22;26359;48.750;9.314;2022-10-16T15:48:31;22.20;99.90
40676;DHT22;26359;48.750;9.314;2022-10-16T15:50:57;22.10;99.90
40676;DHT22;26359;48.750;9.314;2022-10-16T15:53:23;22.10;99.90
40676;DHT22;26359;48.750;9.314;2022-10-16T15:55:48;22.00;99.90
40676;DHT22;26359;48.750;9.314;2022-10-16T15:58:14;22.00;99.90
40676;DHT22;26359;48.750;9.314;2022-10-16T16:00:40;21.90;99.90
40676;DHT22;26359;48.750;9.314;2022-10-16T16:03:05;21.80;99.90
40676;DHT22;26359;48.750;9.314;2022-10-16T16:05:31;21.80;99.90
40676;DHT22;26359;48.750;9.314;2022-10-16T16:07:58;21.70;99.90
40676;DHT22;26359;48.750;9.314;2022-10-16T16:10:24;21.60;99.90
40676;DHT22;26359;48.750;9.314;2022-10-16T16:12:50;21.50;99.90
40676;DHT22;26359;48.750;9.314;2022-10-16T16:15:19;21.40;99.90
40676;DHT22;26359;48.750;9.314;2022-10-16T16:17:45;21.30;99.90
40676;DHT22;26359;48.750;9.314;2022-10-16T16:20:11;21.20;99.90
40676;DHT22;26359;48.750;9.314;2022-10-16T16:22:37;21.20;99.90
40676;DHT22;26359;48.750;9.314;2022-10-16T16:25:03;21.00;99.90
40676;DHT22;26359;48.750;9.314;2022-10-16T16:27:28;21.00;99.90
40676;DHT22;26359;48.750;9.314;2022-10-16T16:29:55;20.90;99.90
40676;DHT22;26359;48.750;9.314;2022-10-16T16:32:21;20.80;99.90
40676;DHT22;26359;48.750;9.314;2022-10-16T16:34:47;20.80;99.90
40676;DHT22;26359;48.750;9.314;2022-10-16T16:37:12;20.70;99.90
40676;DHT22;26359;48.750;9.314;2022-10-16T16:39:38;20.60;99.90
40676;DHT22;26359;48.750;9.314;2022-10-16T16:42:04;20.60;99.90
40676;DHT22;26359;48.750;9.314;2022-10-16T16:44:32;20.60;99.90
40676;DHT22;26359;48.750;9.314;2022-10-16T16:46:57;20.50;99.90
40676;DHT22;26359;48.750;9.314;2022-10-16T16:49:23;20.40;99.90
40676;DHT22;26359;48.750;9.314;2022-10-16T16:51:49;20.40;99.90
40676;DHT22;26359;48.750;9.314;2022-10-16T16:54:14;20.30;99.90
40676;DHT22;26359;48.750;9.314;2022-10-16T16:56:40;20.30;99.90
40676;DHT22;26359;48.750;9.314;2022-10-16T16:59:16;20.20;99.90
40676;DHT22;26359;48.750;9.314;2022-10-16T17:01:43;20.10;99.90
40676;DHT22;26359;48.750;9.314;2022-10-16T17:04:09;20.10;99.90
40676;DHT22;26359;48.750;9.314;2022-10-16T17:06:36;20.00;99.90
40676;DHT22;26359;48.750;9.314;2022-10-16T17:09:03;19.90;99.90
40676;DHT22;26359;48.750;9.314;2022-10-16T17:11:29;19.90;99.90
40676;DHT22;26359;48.750;9.314;2022-10-16T17:13:55;19.90;99.90
40676;DHT22;26359;48.750;9.314;2022-10-16T17:16:23;19.90;99.90
40676;DHT22;26359;48.750;9.314;2022-10-16T17:18:49;19.90;99.90
40676;DHT22;26359;48.750;9.314;2022-10-16T17:21:14;19.90;99.90
40676;DHT22;26359;48.750;9.314;2022-10-16T17:23:40;19.90;99.90
40676;DHT22;26359;48.750;9.314;2022-10-16T17:26:08;19.90;99.90
40676;DHT22;26359;48.750;9.314;2022-10-16T17:28:35;19.80;99.90
40676;DHT22;26359;48.750;9.314;2022-10-16T17:31:24;19.80;99.90
40676;DHT22;26359;48.750;9.314;2022-10-16T17:33:50;19.80;99.90
40676;DHT22;26359;48.750;9.314;2022-10-16T17:36:16;19.80;99.90
40676;DHT22;26359;48.750;9.314;2022-10-16T17:38:43;19.80;99.90
40676;DHT22;26359;48.750;9.314;2022-10-16T17:41:18;19.80;99.90
40676;DHT22;26359;48.750;9.314;2022-10-16T17:43:44;19.70;99.90
40676;DHT22;26359;48.750;9.314;2022-10-16T17:46:11;19.70;99.90